TGL66PC LEPA-LFLL
Flight info
| Callsign | TGL66PC |
|---|---|
| Flight time | 1h 6m |
| Altitude | 36000 |
| Route | MEROS DCT LAPIT DCT CHELY DCT LUMAS DCT SOFFY DCT MRM DCT MTL |
| Aircraft | A320/M-SDE3FGHIRWY/LB1 |
Departure
| Time | 2026-05-04 15:07 |
|---|---|
| Airport | Palma de Mallorca Airport (LEPA) |
Arrival
| Time | 2026-05-04 16:13 |
|---|---|
| Airport | Lyon Saint-Exupéry Airport (LFLL) |
| Time | Latitude | Longitude | Altitude | Speed | Heading |
|---|---|---|---|---|---|
| 2026-05-04 14:16 | 39.54514 | 2.73282 | 36 ft | 0 kts | 347° |
| 2026-05-04 14:51 | 39.54501 | 2.73286 | 36 ft | 3 kts | 350° |
| 2026-05-04 14:51 | 39.54483 | 2.73288 | 37 ft | 3 kts | 19° |
| 2026-05-04 14:51 | 39.54471 | 2.73278 | 35 ft | 0 kts | 58° |
| 2026-05-04 14:55 | 39.54472 | 2.73279 | 37 ft | 1 kts | 58° |
| 2026-05-04 14:55 | 39.54485 | 2.73305 | 36 ft | 4 kts | 57° |
| 2026-05-04 14:55 | 39.54500 | 2.73336 | 35 ft | 5 kts | 59° |
| 2026-05-04 14:56 | 39.54520 | 2.73379 | 37 ft | 5 kts | 59° |
| 2026-05-04 14:56 | 39.54539 | 2.73420 | 36 ft | 6 kts | 58° |
| 2026-05-04 14:56 | 39.54560 | 2.73464 | 36 ft | 5 kts | 58° |
| 2026-05-04 14:56 | 39.54581 | 2.73508 | 36 ft | 6 kts | 58° |
| 2026-05-04 14:57 | 39.54605 | 2.73556 | 35 ft | 6 kts | 56° |
| 2026-05-04 14:57 | 39.54629 | 2.73604 | 34 ft | 8 kts | 58° |
| 2026-05-04 14:57 | 39.54665 | 2.73680 | 35 ft | 10 kts | 59° |
| 2026-05-04 14:57 | 39.54700 | 2.73756 | 35 ft | 9 kts | 59° |
| 2026-05-04 14:58 | 39.54732 | 2.73825 | 34 ft | 9 kts | 59° |
| 2026-05-04 14:58 | 39.54760 | 2.73889 | 34 ft | 8 kts | 59° |
| 2026-05-04 14:58 | 39.54793 | 2.73955 | 33 ft | 10 kts | 56° |
| 2026-05-04 14:58 | 39.54842 | 2.73999 | 33 ft | 8 kts | 354° |
| 2026-05-04 14:59 | 39.54890 | 2.73967 | 33 ft | 7 kts | 328° |
| 2026-05-04 14:59 | 39.54941 | 2.73979 | 32 ft | 10 kts | 51° |
| 2026-05-04 14:59 | 39.55040 | 2.73958 | 31 ft | 9 kts | 329° |
| 2026-05-04 15:00 | 39.55111 | 2.73902 | 33 ft | 15 kts | 328° |
| 2026-05-04 15:00 | 39.55195 | 2.73835 | 33 ft | 13 kts | 329° |
| 2026-05-04 15:00 | 39.55269 | 2.73777 | 33 ft | 12 kts | 328° |
| 2026-05-04 15:01 | 39.55386 | 2.73683 | 34 ft | 8 kts | 328° |
| 2026-05-04 15:01 | 39.55436 | 2.73645 | 34 ft | 9 kts | 329° |
| 2026-05-04 15:01 | 39.55505 | 2.73590 | 34 ft | 13 kts | 328° |
| 2026-05-04 15:01 | 39.55574 | 2.73536 | 34 ft | 11 kts | 329° |
| 2026-05-04 15:02 | 39.55639 | 2.73497 | 34 ft | 9 kts | 0° |
| 2026-05-04 15:02 | 39.55676 | 2.73550 | 34 ft | 8 kts | 58° |
| 2026-05-04 15:02 | 39.55717 | 2.73637 | 35 ft | 13 kts | 58° |
| 2026-05-04 15:02 | 39.55764 | 2.73733 | 35 ft | 12 kts | 58° |
| 2026-05-04 15:03 | 39.55803 | 2.73814 | 36 ft | 10 kts | 58° |
| 2026-05-04 15:03 | 39.55836 | 2.73881 | 36 ft | 8 kts | 58° |
| 2026-05-04 15:03 | 39.55861 | 2.73933 | 37 ft | 6 kts | 58° |
| 2026-05-04 15:03 | 39.55880 | 2.73977 | 37 ft | 5 kts | 60° |
| 2026-05-04 15:04 | 39.55895 | 2.74010 | 36 ft | 4 kts | 59° |
| 2026-05-04 15:04 | 39.55940 | 2.74103 | 36 ft | 22 kts | 58° |
| 2026-05-04 15:04 | 39.56043 | 2.74258 | 39 ft | 22 kts | 34° |
| 2026-05-04 15:04 | 39.56136 | 2.74340 | 38 ft | 6 kts | 33° |
| 2026-05-04 15:05 | 39.56145 | 2.74348 | 39 ft | 0 kts | 33° |
| 2026-05-04 15:05 | 39.56147 | 2.74349 | 40 ft | 2 kts | 33° |
| 2026-05-04 15:05 | 39.56207 | 2.74364 | 40 ft | 15 kts | 344° |
| 2026-05-04 15:05 | 39.56236 | 2.74275 | 39 ft | 11 kts | 239° |
| 2026-05-04 15:06 | 39.56228 | 2.74258 | 37 ft | 14 kts | 238° |
| 2026-05-04 15:06 | 39.56036 | 2.73855 | 34 ft | 87 kts | 238° |
| 2026-05-04 15:06 | 39.55626 | 2.72994 | 33 ft | 138 kts | 238° |
| 2026-05-04 15:07 | 39.54521 | 2.70604 | 1078 ft | 158 kts | 237° |
| 2026-05-04 15:07 | 39.53948 | 2.69375 | 1760 ft | 162 kts | 237° |
| 2026-05-04 15:07 | 39.53321 | 2.68149 | 2404 ft | 165 kts | 235° |
| 2026-05-04 15:07 | 39.52659 | 2.66854 | 2792 ft | 183 kts | 237° |
| 2026-05-04 15:08 | 39.51971 | 2.65377 | 3228 ft | 200 kts | 238° |
| 2026-05-04 15:08 | 39.51239 | 2.63806 | 3926 ft | 206 kts | 237° |
| 2026-05-04 15:08 | 39.50492 | 2.62211 | 4690 ft | 211 kts | 238° |
| 2026-05-04 15:08 | 39.49577 | 2.60736 | 4924 ft | 220 kts | 218° |
| 2026-05-04 15:09 | 39.48109 | 2.59792 | 5002 ft | 247 kts | 204° |
| 2026-05-04 15:09 | 39.46527 | 2.58842 | 5550 ft | 256 kts | 208° |
| 2026-05-04 15:09 | 39.44944 | 2.57784 | 6542 ft | 256 kts | 209° |
| 2026-05-04 15:10 | 39.41461 | 2.56833 | 8229 ft | 273 kts | 171° |
| 2026-05-04 15:10 | 39.39729 | 2.57951 | 9046 ft | 290 kts | 143° |
| 2026-05-04 15:10 | 39.38334 | 2.62977 | 10388 ft | 328 kts | 91° |
| 2026-05-04 15:11 | 39.38469 | 2.66038 | 10617 ft | 353 kts | 87° |
| 2026-05-04 15:11 | 39.38724 | 2.69282 | 10992 ft | 369 kts | 85° |
| 2026-05-04 15:11 | 39.39023 | 2.72566 | 11658 ft | 375 kts | 85° |
| 2026-05-04 15:11 | 39.39328 | 2.75939 | 12390 ft | 379 kts | 85° |
| 2026-05-04 15:12 | 39.39613 | 2.79354 | 13107 ft | 383 kts | 86° |
| 2026-05-04 15:12 | 39.39872 | 2.82799 | 13810 ft | 387 kts | 86° |
| 2026-05-04 15:12 | 39.40116 | 2.86282 | 14417 ft | 391 kts | 86° |
| 2026-05-04 15:12 | 39.40354 | 2.89811 | 15002 ft | 396 kts | 87° |
| 2026-05-04 15:13 | 39.40587 | 2.93330 | 15561 ft | 401 kts | 87° |
| 2026-05-04 15:13 | 39.40827 | 2.96949 | 16136 ft | 406 kts | 86° |
| 2026-05-04 15:13 | 39.41071 | 3.00606 | 16698 ft | 410 kts | 86° |
| 2026-05-04 15:13 | 39.41320 | 3.04315 | 17263 ft | 415 kts | 86° |
| 2026-05-04 15:14 | 39.41570 | 3.08059 | 17762 ft | 421 kts | 86° |
| 2026-05-04 15:14 | 39.41824 | 3.11850 | 18207 ft | 425 kts | 86° |
| 2026-05-04 15:14 | 39.42079 | 3.15693 | 18704 ft | 429 kts | 86° |
| 2026-05-04 15:14 | 39.42336 | 3.19559 | 19183 ft | 433 kts | 87° |
| 2026-05-04 15:15 | 39.42770 | 3.23441 | 19648 ft | 439 kts | 78° |
| 2026-05-04 15:15 | 39.43694 | 3.27227 | 20102 ft | 444 kts | 67° |
| 2026-05-04 15:15 | 39.45102 | 3.30795 | 20543 ft | 448 kts | 58° |
| 2026-05-04 15:16 | 39.48318 | 3.37735 | 21438 ft | 456 kts | 58° |
| 2026-05-04 15:16 | 39.49950 | 3.41290 | 21860 ft | 461 kts | 59° |
| 2026-05-04 15:16 | 39.53241 | 3.48493 | 22717 ft | 469 kts | 59° |
| 2026-05-04 15:17 | 39.54908 | 3.52141 | 23153 ft | 472 kts | 59° |
| 2026-05-04 15:17 | 39.58283 | 3.59528 | 23901 ft | 480 kts | 59° |
| 2026-05-04 15:17 | 39.59984 | 3.63249 | 24262 ft | 483 kts | 59° |
| 2026-05-04 15:18 | 39.61705 | 3.67022 | 24617 ft | 486 kts | 59° |
| 2026-05-04 15:18 | 39.63432 | 3.70813 | 24972 ft | 488 kts | 59° |
| 2026-05-04 15:18 | 39.65163 | 3.74616 | 25319 ft | 491 kts | 60° |
| 2026-05-04 15:19 | 39.68648 | 3.82291 | 26009 ft | 496 kts | 60° |
| 2026-05-04 15:19 | 39.70400 | 3.86156 | 26358 ft | 498 kts | 60° |
| 2026-05-04 15:19 | 39.73923 | 3.93957 | 27053 ft | 503 kts | 60° |
| 2026-05-04 15:20 | 39.75697 | 3.97893 | 27381 ft | 506 kts | 60° |
| 2026-05-04 15:20 | 39.77480 | 4.01850 | 27708 ft | 508 kts | 61° |
| 2026-05-04 15:20 | 39.79275 | 4.05833 | 28025 ft | 511 kts | 61° |
| 2026-05-04 15:20 | 39.81081 | 4.09832 | 28335 ft | 514 kts | 60° |
| 2026-05-04 15:21 | 39.83135 | 4.13624 | 28622 ft | 517 kts | 50° |
| 2026-05-04 15:21 | 39.85650 | 4.17006 | 28900 ft | 519 kts | 40° |
| 2026-05-04 15:21 | 39.91660 | 4.22015 | 29473 ft | 515 kts | 19° |
| 2026-05-04 15:22 | 39.95070 | 4.23568 | 29770 ft | 511 kts | 9° |
| 2026-05-04 15:22 | 39.98501 | 4.24469 | 29990 ft | 511 kts | 4° |
| 2026-05-04 15:22 | 40.05545 | 4.26101 | 30422 ft | 515 kts | 5° |
| 2026-05-04 15:23 | 40.09070 | 4.26933 | 30769 ft | 514 kts | 5° |
| 2026-05-04 15:23 | 40.12584 | 4.27768 | 31138 ft | 512 kts | 5° |
| 2026-05-04 15:23 | 40.16086 | 4.28606 | 31500 ft | 511 kts | 5° |
| 2026-05-04 15:23 | 40.19578 | 4.29441 | 31877 ft | 510 kts | 4° |
| 2026-05-04 15:24 | 40.26538 | 4.31098 | 32583 ft | 507 kts | 4° |
| 2026-05-04 15:24 | 40.33468 | 4.32737 | 33318 ft | 504 kts | 4° |
| 2026-05-04 15:25 | 40.36911 | 4.33551 | 33687 ft | 502 kts | 4° |
| 2026-05-04 15:25 | 40.40352 | 4.34365 | 34053 ft | 501 kts | 4° |
| 2026-05-04 15:25 | 40.43751 | 4.35170 | 34303 ft | 502 kts | 4° |
| 2026-05-04 15:26 | 40.50656 | 4.36809 | 34895 ft | 500 kts | 4° |
| 2026-05-04 15:26 | 40.54032 | 4.37613 | 35203 ft | 499 kts | 4° |
| 2026-05-04 15:26 | 40.60850 | 4.39243 | 35782 ft | 496 kts | 4° |
| 2026-05-04 15:27 | 40.64252 | 4.40058 | 35912 ft | 496 kts | 4° |
| 2026-05-04 15:27 | 40.71063 | 4.41690 | 35940 ft | 498 kts | 4° |
| 2026-05-04 15:28 | 40.81270 | 4.44139 | 35942 ft | 496 kts | 4° |
| 2026-05-04 15:29 | 40.91446 | 4.46599 | 35934 ft | 496 kts | 4° |
| 2026-05-04 15:30 | 41.15203 | 4.52372 | 35928 ft | 496 kts | 4° |
| 2026-05-04 15:31 | 41.25402 | 4.54862 | 35931 ft | 496 kts | 4° |
| 2026-05-04 15:32 | 41.42372 | 4.59020 | 35918 ft | 497 kts | 4° |
| 2026-05-04 15:34 | 41.59341 | 4.63214 | 35939 ft | 497 kts | 4° |
| 2026-05-04 15:34 | 41.69550 | 4.65732 | 35959 ft | 497 kts | 4° |
| 2026-05-04 15:35 | 41.79670 | 4.69149 | 35953 ft | 501 kts | 11° |
| 2026-05-04 15:36 | 41.89712 | 4.73087 | 35961 ft | 501 kts | 11° |
| 2026-05-04 15:36 | 41.96358 | 4.75694 | 35960 ft | 501 kts | 11° |
| 2026-05-04 15:37 | 42.03054 | 4.78331 | 35957 ft | 500 kts | 11° |
| 2026-05-04 15:37 | 42.08616 | 4.80525 | 35956 ft | 500 kts | 11° |
| 2026-05-04 15:38 | 42.16376 | 4.83599 | 35969 ft | 499 kts | 11° |
| 2026-05-04 15:38 | 42.21911 | 4.85798 | 35968 ft | 498 kts | 11° |
| 2026-05-04 15:39 | 42.28556 | 4.88445 | 35966 ft | 497 kts | 11° |
| 2026-05-04 15:40 | 42.38506 | 4.92413 | 35974 ft | 496 kts | 11° |
| 2026-05-04 15:40 | 42.45089 | 4.95040 | 35968 ft | 496 kts | 11° |
| 2026-05-04 15:41 | 42.51706 | 4.97693 | 35977 ft | 496 kts | 11° |
| 2026-05-04 15:41 | 42.58345 | 5.00359 | 35971 ft | 496 kts | 11° |
| 2026-05-04 15:42 | 42.64963 | 5.03029 | 35974 ft | 496 kts | 11° |
| 2026-05-04 15:42 | 42.71586 | 5.05696 | 35977 ft | 496 kts | 11° |
| 2026-05-04 15:43 | 42.78169 | 5.08349 | 35973 ft | 496 kts | 11° |
| 2026-05-04 15:43 | 42.84796 | 5.11033 | 35976 ft | 496 kts | 11° |
| 2026-05-04 15:44 | 42.91410 | 5.13723 | 36005 ft | 496 kts | 11° |
| 2026-05-04 15:44 | 42.98031 | 5.16421 | 35983 ft | 496 kts | 11° |
| 2026-05-04 15:45 | 43.04655 | 5.19119 | 35976 ft | 496 kts | 11° |
| 2026-05-04 15:45 | 43.11228 | 5.21794 | 35993 ft | 496 kts | 11° |
| 2026-05-04 15:46 | 43.17860 | 5.24494 | 35992 ft | 496 kts | 11° |
| 2026-05-04 15:46 | 43.24449 | 5.27190 | 35994 ft | 496 kts | 11° |
| 2026-05-04 15:47 | 43.31072 | 5.29898 | 36019 ft | 496 kts | 10° |
| 2026-05-04 15:47 | 43.37787 | 5.31093 | 36019 ft | 480 kts | 352° |
| 2026-05-04 15:48 | 43.44247 | 5.29677 | 36014 ft | 462 kts | 334° |
| 2026-05-04 15:48 | 43.53383 | 5.25499 | 36019 ft | 461 kts | 334° |
| 2026-05-04 15:49 | 43.59489 | 5.22715 | 36011 ft | 461 kts | 334° |
| 2026-05-04 15:49 | 43.65546 | 5.19947 | 36005 ft | 461 kts | 334° |
| 2026-05-04 15:50 | 43.71638 | 5.17150 | 36015 ft | 461 kts | 334° |
| 2026-05-04 15:50 | 43.77736 | 5.14342 | 36002 ft | 461 kts | 334° |
| 2026-05-04 15:51 | 43.83790 | 5.11550 | 36001 ft | 462 kts | 334° |
| 2026-05-04 15:51 | 43.89901 | 5.08728 | 35999 ft | 462 kts | 334° |
| 2026-05-04 15:52 | 43.96002 | 5.05896 | 36011 ft | 462 kts | 334° |
| 2026-05-04 15:52 | 44.02099 | 5.03057 | 36010 ft | 462 kts | 334° |
| 2026-05-04 15:53 | 44.08172 | 5.00231 | 36032 ft | 462 kts | 334° |
| 2026-05-04 15:53 | 44.14272 | 4.97385 | 36052 ft | 462 kts | 334° |
| 2026-05-04 15:54 | 44.20370 | 4.94531 | 36070 ft | 462 kts | 334° |
| 2026-05-04 15:54 | 44.26468 | 4.91677 | 36052 ft | 462 kts | 334° |
| 2026-05-04 15:55 | 44.32561 | 4.88817 | 36045 ft | 462 kts | 334° |
| 2026-05-04 15:55 | 44.38666 | 4.85940 | 36043 ft | 463 kts | 334° |
| 2026-05-04 15:56 | 44.41720 | 4.84502 | 35619 ft | 464 kts | 334° |
| 2026-05-04 15:56 | 44.44820 | 4.83031 | 34525 ft | 475 kts | 335° |
| 2026-05-04 15:56 | 44.47969 | 4.81530 | 33472 ft | 479 kts | 335° |
| 2026-05-04 15:56 | 44.51129 | 4.80034 | 31904 ft | 481 kts | 336° |
| 2026-05-04 15:57 | 44.54409 | 4.78862 | 30493 ft | 490 kts | 346° |
| 2026-05-04 15:57 | 44.57837 | 4.78413 | 29517 ft | 498 kts | 356° |
| 2026-05-04 15:57 | 44.61287 | 4.78633 | 28900 ft | 493 kts | 1° |
| 2026-05-04 15:57 | 44.64651 | 4.78971 | 28258 ft | 487 kts | 1° |
| 2026-05-04 15:58 | 44.68019 | 4.79296 | 27623 ft | 481 kts | 1° |
| 2026-05-04 15:58 | 44.71338 | 4.79617 | 26998 ft | 475 kts | 1° |
| 2026-05-04 15:58 | 44.74616 | 4.79940 | 26382 ft | 470 kts | 1° |
| 2026-05-04 15:58 | 44.77867 | 4.80269 | 25773 ft | 465 kts | 1° |
| 2026-05-04 15:59 | 44.81079 | 4.80597 | 25177 ft | 461 kts | 1° |
| 2026-05-04 15:59 | 44.84262 | 4.80925 | 24589 ft | 456 kts | 1° |
| 2026-05-04 15:59 | 44.87409 | 4.81250 | 24167 ft | 448 kts | 1° |
| 2026-05-04 15:59 | 44.90475 | 4.81568 | 23999 ft | 436 kts | 2° |
| 2026-05-04 16:00 | 44.93495 | 4.81878 | 24026 ft | 434 kts | 2° |
| 2026-05-04 16:00 | 44.96506 | 4.82187 | 24029 ft | 434 kts | 2° |
| 2026-05-04 16:00 | 44.99515 | 4.82496 | 24029 ft | 434 kts | 2° |
| 2026-05-04 16:00 | 45.02524 | 4.82806 | 24026 ft | 433 kts | 2° |
| 2026-05-04 16:01 | 45.05525 | 4.83116 | 24019 ft | 433 kts | 2° |
| 2026-05-04 16:01 | 45.08511 | 4.83423 | 23234 ft | 439 kts | 2° |
| 2026-05-04 16:01 | 45.11584 | 4.83743 | 22264 ft | 445 kts | 2° |
| 2026-05-04 16:01 | 45.14671 | 4.84066 | 21586 ft | 443 kts | 3° |
| 2026-05-04 16:02 | 45.17718 | 4.84574 | 20989 ft | 440 kts | 11° |
| 2026-05-04 16:02 | 45.20657 | 4.85718 | 20423 ft | 436 kts | 16° |
| 2026-05-04 16:02 | 45.26418 | 4.88191 | 19332 ft | 428 kts | 16° |
| 2026-05-04 16:03 | 45.29253 | 4.89396 | 18895 ft | 422 kts | 16° |
| 2026-05-04 16:03 | 45.32095 | 4.90488 | 18250 ft | 423 kts | 14° |
| 2026-05-04 16:03 | 45.34943 | 4.91477 | 17626 ft | 420 kts | 13° |
| 2026-05-04 16:03 | 45.37782 | 4.92416 | 17067 ft | 416 kts | 12° |
| 2026-05-04 16:04 | 45.40556 | 4.93322 | 16534 ft | 412 kts | 12° |
| 2026-05-04 16:04 | 45.46093 | 4.95181 | 15504 ft | 405 kts | 13° |
| 2026-05-04 16:04 | 45.48823 | 4.96133 | 14976 ft | 403 kts | 13° |
| 2026-05-04 16:05 | 45.51538 | 4.97096 | 14456 ft | 400 kts | 13° |
| 2026-05-04 16:05 | 45.54233 | 4.97937 | 14097 ft | 392 kts | 6° |
| 2026-05-04 16:05 | 45.59616 | 4.97700 | 12960 ft | 385 kts | 352° |
| 2026-05-04 16:06 | 45.62261 | 4.97311 | 12554 ft | 378 kts | 352° |
| 2026-05-04 16:06 | 45.68823 | 4.96369 | 12185 ft | 330 kts | 352° |
| 2026-05-04 16:07 | 45.71807 | 4.95954 | 11951 ft | 320 kts | 352° |
| 2026-05-04 16:07 | 45.78359 | 4.95013 | 10961 ft | 312 kts | 352° |
| 2026-05-04 16:08 | 45.80511 | 4.94702 | 10627 ft | 309 kts | 352° |
| 2026-05-04 16:08 | 45.86879 | 4.94359 | 9595 ft | 305 kts | 11° |
| 2026-05-04 16:09 | 45.90710 | 4.96535 | 9275 ft | 287 kts | 37° |
| 2026-05-04 16:09 | 45.92586 | 5.01361 | 8125 ft | 293 kts | 92° |
| 2026-05-04 16:10 | 45.90803 | 5.06364 | 6547 ft | 295 kts | 150° |
| 2026-05-04 16:11 | 45.84780 | 5.07806 | 3420 ft | 289 kts | 176° |
| 2026-05-04 16:11 | 45.82865 | 5.08033 | 3087 ft | 265 kts | 175° |
| 2026-05-04 16:12 | 45.77596 | 5.08686 | 1670 ft | 228 kts | 174° |
| 2026-05-04 16:12 | 45.73463 | 5.09189 | 855 ft | 170 kts | 174° |
| 2026-05-04 16:13 | 45.71664 | 5.09403 | 797 ft | 35 kts | 175° |
| 2026-05-04 16:13 | 45.71480 | 5.09431 | 800 ft | 26 kts | 175° |
| 2026-05-04 16:14 | 45.71142 | 5.09461 | 806 ft | 15 kts | 197° |
| 2026-05-04 16:14 | 45.71100 | 5.09301 | 805 ft | 0 kts | 265° |
| 2026-05-04 16:18 | 45.71092 | 5.09161 | 806 ft | 13 kts | 267° |
| 2026-05-04 16:18 | 45.71079 | 5.09011 | 805 ft | 12 kts | 244° |
| 2026-05-04 16:19 | 45.71096 | 5.08768 | 805 ft | 6 kts | 285° |
| 2026-05-04 16:19 | 45.71115 | 5.08666 | 805 ft | 5 kts | 285° |
| 2026-05-04 16:20 | 45.71269 | 5.08544 | 803 ft | 14 kts | 357° |
| 2026-05-04 16:20 | 45.71442 | 5.08521 | 801 ft | 13 kts | 356° |
| 2026-05-04 16:21 | 45.71624 | 5.08500 | 799 ft | 0 kts | 355° |
| 2026-05-04 16:22 | 45.71660 | 5.08496 | 798 ft | 6 kts | 355° |
| 2026-05-04 16:22 | 45.71892 | 5.08466 | 795 ft | 12 kts | 355° |
| 2026-05-04 16:23 | 45.71908 | 5.08206 | 794 ft | 13 kts | 195° |
| 2026-05-04 16:24 | 45.71615 | 5.08154 | 798 ft | 3 kts | 180° |
| 2026-05-04 16:25 | 45.71610 | 5.08155 | 798 ft | 0 kts | 173° |